sensor_id;sensor_type;location;lat;lon;timestamp;P1;durP1;ratioP1;P2;durP2;ratioP2
6997;SDS011;3539;47.982;12.238;2023-03-01T00:00:07;15.97;;;13.43;;
6997;SDS011;3539;47.982;12.238;2023-03-01T00:02:35;17.87;;;13.53;;
6997;SDS011;3539;47.982;12.238;2023-03-01T00:05:02;18.80;;;13.00;;
6997;SDS011;3539;47.982;12.238;2023-03-01T00:07:30;15.87;;;13.40;;
6997;SDS011;3539;47.982;12.238;2023-03-01T00:09:58;16.77;;;13.10;;
6997;SDS011;3539;47.982;12.238;2023-03-01T00:12:24;18.07;;;14.20;;
6997;SDS011;3539;47.982;12.238;2023-03-01T00:14:54;17.03;;;13.57;;
6997;SDS011;3539;47.982;12.238;2023-03-01T00:17:21;20.67;;;14.73;;
6997;SDS011;3539;47.982;12.238;2023-03-01T00:19:48;18.37;;;13.93;;
6997;SDS011;3539;47.982;12.238;2023-03-01T00:22:14;19.70;;;13.93;;
6997;SDS011;3539;47.982;12.238;2023-03-01T00:24:43;17.07;;;12.93;;
6997;SDS011;3539;47.982;12.238;2023-03-01T00:27:10;18.60;;;14.40;;
6997;SDS011;3539;47.982;12.238;2023-03-01T00:29:37;16.27;;;13.30;;
6997;SDS011;3539;47.982;12.238;2023-03-01T00:32:04;19.33;;;13.57;;
6997;SDS011;3539;47.982;12.238;2023-03-01T00:34:31;18.63;;;14.07;;
6997;SDS011;3539;47.982;12.238;2023-03-01T00:36:57;19.67;;;13.80;;
6997;SDS011;3539;47.982;12.238;2023-03-01T00:39:30;18.40;;;13.87;;
6997;SDS011;3539;47.982;12.238;2023-03-01T00:41:59;19.70;;;13.47;;
6997;SDS011;3539;47.982;12.238;2023-03-01T00:44:26;18.90;;;14.57;;
6997;SDS011;3539;47.982;12.238;2023-03-01T00:46:53;19.50;;;13.80;;
6997;SDS011;3539;47.982;12.238;2023-03-01T00:49:20;18.27;;;14.50;;
6997;SDS011;3539;47.982;12.238;2023-03-01T00:51:49;16.80;;;13.73;;
6997;SDS011;3539;47.982;12.238;2023-03-01T00:54:16;18.30;;;14.10;;
6997;SDS011;3539;47.982;12.238;2023-03-01T00:56:48;20.70;;;14.73;;
6997;SDS011;3539;47.982;12.238;2023-03-01T00:59:17;16.50;;;13.80;;
6997;SDS011;3539;47.982;12.238;2023-03-01T01:01:44;16.57;;;13.63;;
6997;SDS011;3539;47.982;12.238;2023-03-01T01:04:12;16.33;;;13.70;;
6997;SDS011;3539;47.982;12.238;2023-03-01T01:06:40;18.77;;;13.80;;
6997;SDS011;3539;47.982;12.238;2023-03-01T01:09:11;18.10;;;13.70;;
6997;SDS011;3539;47.982;12.238;2023-03-01T01:11:42;16.17;;;13.07;;
6997;SDS011;3539;47.982;12.238;2023-03-01T01:14:09;20.67;;;14.20;;
6997;SDS011;3539;47.982;12.238;2023-03-01T01:16:45;15.37;;;12.67;;
6997;SDS011;3539;47.982;12.238;2023-03-01T01:19:16;16.47;;;13.17;;
6997;SDS011;3539;47.982;12.238;2023-03-01T01:21:45;17.03;;;13.50;;
6997;SDS011;3539;47.982;12.238;2023-03-01T01:24:13;17.57;;;13.57;;
6997;SDS011;3539;47.982;12.238;2023-03-01T01:26:40;20.23;;;13.90;;
6997;SDS011;3539;47.982;12.238;2023-03-01T01:29:07;15.73;;;13.80;;
6997;SDS011;3539;47.982;12.238;2023-03-01T01:31:34;16.47;;;13.23;;
6997;SDS011;3539;47.982;12.238;2023-03-01T01:34:05;17.67;;;13.80;;
6997;SDS011;3539;47.982;12.238;2023-03-01T01:36:33;15.73;;;13.43;;
6997;SDS011;3539;47.982;12.238;2023-03-01T01:39:03;16.83;;;13.73;;
6997;SDS011;3539;47.982;12.238;2023-03-01T01:41:38;17.00;;;13.80;;
6997;SDS011;3539;47.982;12.238;2023-03-01T01:44:13;17.23;;;13.97;;
6997;SDS011;3539;47.982;12.238;2023-03-01T01:46:46;17.30;;;13.97;;
6997;SDS011;3539;47.982;12.238;2023-03-01T01:49:22;17.40;;;13.73;;
6997;SDS011;3539;47.982;12.238;2023-03-01T01:51:51;16.20;;;13.07;;
6997;SDS011;3539;47.982;12.238;2023-03-01T01:54:23;17.00;;;13.70;;
6997;SDS011;3539;47.982;12.238;2023-03-01T01:56:55;16.47;;;13.20;;
6997;SDS011;3539;47.982;12.238;2023-03-01T01:59:24;16.03;;;13.27;;
6997;SDS011;3539;47.982;12.238;2023-03-01T02:01:51;18.00;;;14.57;;
6997;SDS011;3539;47.982;12.238;2023-03-01T02:04:18;16.93;;;13.10;;
6997;SDS011;3539;47.982;12.238;2023-03-01T02:06:48;17.00;;;12.93;;
6997;SDS011;3539;47.982;12.238;2023-03-01T02:09:17;16.73;;;13.50;;
6997;SDS011;3539;47.982;12.238;2023-03-01T02:11:45;18.03;;;13.97;;
6997;SDS011;3539;47.982;12.238;2023-03-01T02:14:13;17.97;;;14.40;;
6997;SDS011;3539;47.982;12.238;2023-03-01T02:16:40;19.30;;;13.90;;
6997;SDS011;3539;47.982;12.238;2023-03-01T02:19:08;16.87;;;13.77;;
6997;SDS011;3539;47.982;12.238;2023-03-01T02:21:41;16.60;;;13.53;;
6997;SDS011;3539;47.982;12.238;2023-03-01T02:24:15;18.57;;;14.10;;
6997;SDS011;3539;47.982;12.238;2023-03-01T02:26:48;16.73;;;13.23;;
6997;SDS011;3539;47.982;12.238;2023-03-01T02:29:18;16.27;;;13.73;;
6997;SDS011;3539;47.982;12.238;2023-03-01T02:31:45;18.10;;;13.30;;
6997;SDS011;3539;47.982;12.238;2023-03-01T02:34:12;16.07;;;13.13;;
6997;SDS011;3539;47.982;12.238;2023-03-01T02:36:40;18.07;;;13.77;;
6997;SDS011;3539;47.982;12.238;2023-03-01T02:39:10;18.63;;;14.13;;
6997;SDS011;3539;47.982;12.238;2023-03-01T02:41:41;17.60;;;13.53;;
6997;SDS011;3539;47.982;12.238;2023-03-01T02:44:09;16.17;;;13.03;;
6997;SDS011;3539;47.982;12.238;2023-03-01T02:46:42;16.97;;;14.27;;
6997;SDS011;3539;47.982;12.238;2023-03-01T02:49:21;16.43;;;14.03;;
6997;SDS011;3539;47.982;12.238;2023-03-01T02:51:52;17.80;;;14.10;;
6997;SDS011;3539;47.982;12.238;2023-03-01T02:54:36;16.17;;;13.80;;
6997;SDS011;3539;47.982;12.238;2023-03-01T02:57:06;18.37;;;13.77;;
6997;SDS011;3539;47.982;12.238;2023-03-01T02:59:34;18.87;;;13.90;;
6997;SDS011;3539;47.982;12.238;2023-03-01T03:02:05;18.10;;;13.93;;
6997;SDS011;3539;47.982;12.238;2023-03-01T03:04:32;18.20;;;13.87;;
6997;SDS011;3539;47.982;12.238;2023-03-01T03:06:59;19.37;;;13.53;;
6997;SDS011;3539;47.982;12.238;2023-03-01T03:09:26;16.83;;;13.73;;
6997;SDS011;3539;47.982;12.238;2023-03-01T03:11:53;17.70;;;14.40;;
6997;SDS011;3539;47.982;12.238;2023-03-01T03:14:20;17.47;;;13.80;;
6997;SDS011;3539;47.982;12.238;2023-03-01T03:16:47;19.13;;;14.20;;
6997;SDS011;3539;47.982;12.238;2023-03-01T03:19:16;18.53;;;14.10;;
6997;SDS011;3539;47.982;12.238;2023-03-01T03:21:43;17.07;;;13.20;;
6997;SDS011;3539;47.982;12.238;2023-03-01T03:24:10;18.27;;;14.07;;
6997;SDS011;3539;47.982;12.238;2023-03-01T03:26:36;17.87;;;13.80;;
6997;SDS011;3539;47.982;12.238;2023-03-01T03:29:03;15.60;;;13.07;;
6997;SDS011;3539;47.982;12.238;2023-03-01T03:31:30;16.00;;;14.07;;
6997;SDS011;3539;47.982;12.238;2023-03-01T03:33:56;15.50;;;13.23;;
6997;SDS011;3539;47.982;12.238;2023-03-01T03:36:27;17.00;;;14.50;;
6997;SDS011;3539;47.982;12.238;2023-03-01T03:38:53;17.03;;;12.70;;
6997;SDS011;3539;47.982;12.238;2023-03-01T03:41:20;19.67;;;14.67;;
6997;SDS011;3539;47.982;12.238;2023-03-01T03:43:47;17.77;;;14.47;;
6997;SDS011;3539;47.982;12.238;2023-03-01T03:46:14;19.53;;;14.27;;
6997;SDS011;3539;47.982;12.238;2023-03-01T03:48:42;17.77;;;14.53;;
6997;SDS011;3539;47.982;12.238;2023-03-01T03:51:10;19.57;;;14.67;;
6997;SDS011;3539;47.982;12.238;2023-03-01T03:53:39;17.23;;;14.67;;
6997;SDS011;3539;47.982;12.238;2023-03-01T03:56:06;19.27;;;15.70;;
6997;SDS011;3539;47.982;12.238;2023-03-01T03:58:33;18.27;;;14.83;;
6997;SDS011;3539;47.982;12.238;2023-03-01T04:01:00;18.70;;;15.17;;
6997;SDS011;3539;47.982;12.238;2023-03-01T04:03:28;19.47;;;15.00;;
6997;SDS011;3539;47.982;12.238;2023-03-01T04:05:57;18.83;;;15.50;;
6997;SDS011;3539;47.982;12.238;2023-03-01T04:08:24;19.97;;;15.20;;
6997;SDS011;3539;47.982;12.238;2023-03-01T04:10:56;18.50;;;14.57;;
6997;SDS011;3539;47.982;12.238;2023-03-01T04:13:24;19.43;;;15.17;;
6997;SDS011;3539;47.982;12.238;2023-03-01T04:15:51;25.53;;;15.73;;
6997;SDS011;3539;47.982;12.238;2023-03-01T04:18:19;18.87;;;15.47;;
6997;SDS011;3539;47.982;12.238;2023-03-01T04:20:46;20.67;;;15.23;;
6997;SDS011;3539;47.982;12.238;2023-03-01T04:23:14;48.00;;;28.87;;
6997;SDS011;3539;47.982;12.238;2023-03-01T04:25:45;20.00;;;15.50;;
6997;SDS011;3539;47.982;12.238;2023-03-01T04:28:15;20.63;;;15.27;;
6997;SDS011;3539;47.982;12.238;2023-03-01T04:30:42;19.00;;;15.53;;
6997;SDS011;3539;47.982;12.238;2023-03-01T04:33:09;22.00;;;15.63;;
6997;SDS011;3539;47.982;12.238;2023-03-01T04:35:37;21.83;;;16.83;;
6997;SDS011;3539;47.982;12.238;2023-03-01T04:38:04;21.80;;;16.60;;
6997;SDS011;3539;47.982;12.238;2023-03-01T04:40:31;20.10;;;16.60;;
6997;SDS011;3539;47.982;12.238;2023-03-01T04:42:58;19.10;;;15.43;;
6997;SDS011;3539;47.982;12.238;2023-03-01T04:45:26;24.27;;;16.37;;
6997;SDS011;3539;47.982;12.238;2023-03-01T04:47:53;20.43;;;14.33;;
6997;SDS011;3539;47.982;12.238;2023-03-01T04:50:20;19.07;;;15.60;;
6997;SDS011;3539;47.982;12.238;2023-03-01T04:52:48;21.93;;;16.60;;
6997;SDS011;3539;47.982;12.238;2023-03-01T04:55:15;20.97;;;15.90;;
6997;SDS011;3539;47.982;12.238;2023-03-01T04:57:42;21.27;;;15.90;;
6997;SDS011;3539;47.982;12.238;2023-03-01T05:00:10;21.77;;;15.63;;
6997;SDS011;3539;47.982;12.238;2023-03-01T05:02:51;21.43;;;16.53;;
6997;SDS011;3539;47.982;12.238;2023-03-01T05:05:23;20.90;;;16.50;;
6997;SDS011;3539;47.982;12.238;2023-03-01T05:07:52;21.90;;;16.23;;
6997;SDS011;3539;47.982;12.238;2023-03-01T05:10:20;20.80;;;17.43;;
6997;SDS011;3539;47.982;12.238;2023-03-01T05:12:47;22.90;;;16.60;;
6997;SDS011;3539;47.982;12.238;2023-03-01T05:15:13;20.30;;;16.40;;
6997;SDS011;3539;47.982;12.238;2023-03-01T05:17:40;19.80;;;16.20;;
6997;SDS011;3539;47.982;12.238;2023-03-01T05:20:09;19.20;;;15.57;;
6997;SDS011;3539;47.982;12.238;2023-03-01T05:22:36;20.13;;;16.20;;
6997;SDS011;3539;47.982;12.238;2023-03-01T05:25:03;22.33;;;17.13;;
6997;SDS011;3539;47.982;12.238;2023-03-01T05:27:32;22.53;;;16.83;;
6997;SDS011;3539;47.982;12.238;2023-03-01T05:29:59;20.33;;;15.20;;
6997;SDS011;3539;47.982;12.238;2023-03-01T05:32:38;21.03;;;15.37;;
6997;SDS011;3539;47.982;12.238;2023-03-01T05:35:06;20.57;;;15.77;;
6997;SDS011;3539;47.982;12.238;2023-03-01T05:37:34;20.17;;;16.20;;
6997;SDS011;3539;47.982;12.238;2023-03-01T05:40:02;20.13;;;16.20;;
6997;SDS011;3539;47.982;12.238;2023-03-01T05:42:30;21.60;;;16.53;;
6997;SDS011;3539;47.982;12.238;2023-03-01T05:44:57;19.63;;;15.73;;
6997;SDS011;3539;47.982;12.238;2023-03-01T05:47:24;20.73;;;16.33;;
6997;SDS011;3539;47.982;12.238;2023-03-01T05:49:50;20.47;;;15.73;;
6997;SDS011;3539;47.982;12.238;2023-03-01T05:52:17;24.37;;;16.00;;
6997;SDS011;3539;47.982;12.238;2023-03-01T05:54:45;19.70;;;15.50;;
6997;SDS011;3539;47.982;12.238;2023-03-01T05:57:12;20.83;;;16.03;;
6997;SDS011;3539;47.982;12.238;2023-03-01T05:59:39;19.87;;;16.13;;
6997;SDS011;3539;47.982;12.238;2023-03-01T06:02:06;22.13;;;16.53;;
6997;SDS011;3539;47.982;12.238;2023-03-01T06:04:33;22.60;;;17.33;;
6997;SDS011;3539;47.982;12.238;2023-03-01T06:06:59;21.40;;;16.27;;
6997;SDS011;3539;47.982;12.238;2023-03-01T06:09:26;21.40;;;16.17;;
6997;SDS011;3539;47.982;12.238;2023-03-01T06:11:54;19.87;;;16.57;;
6997;SDS011;3539;47.982;12.238;2023-03-01T06:14:21;21.23;;;16.50;;
6997;SDS011;3539;47.982;12.238;2023-03-01T06:16:47;21.50;;;16.27;;
6997;SDS011;3539;47.982;12.238;2023-03-01T06:19:14;20.73;;;15.90;;
6997;SDS011;3539;47.982;12.238;2023-03-01T06:21:41;21.87;;;16.50;;
6997;SDS011;3539;47.982;12.238;2023-03-01T06:24:08;24.13;;;17.50;;
6997;SDS011;3539;47.982;12.238;2023-03-01T06:26:34;20.13;;;16.40;;
6997;SDS011;3539;47.982;12.238;2023-03-01T06:29:02;22.30;;;16.40;;
6997;SDS011;3539;47.982;12.238;2023-03-01T06:31:29;23.47;;;16.60;;
6997;SDS011;3539;47.982;12.238;2023-03-01T06:33:56;21.57;;;16.63;;
6997;SDS011;3539;47.982;12.238;2023-03-01T06:36:22;22.77;;;17.47;;
6997;SDS011;3539;47.982;12.238;2023-03-01T06:38:49;24.23;;;17.37;;
6997;SDS011;3539;47.982;12.238;2023-03-01T06:41:16;22.47;;;16.17;;
6997;SDS011;3539;47.982;12.238;2023-03-01T06:43:42;23.60;;;17.73;;
6997;SDS011;3539;47.982;12.238;2023-03-01T06:46:10;22.33;;;16.37;;
6997;SDS011;3539;47.982;12.238;2023-03-01T06:48:37;22.57;;;17.27;;
6997;SDS011;3539;47.982;12.238;2023-03-01T06:51:04;23.10;;;18.40;;
6997;SDS011;3539;47.982;12.238;2023-03-01T06:53:31;24.70;;;17.60;;
6997;SDS011;3539;47.982;12.238;2023-03-01T06:55:58;24.57;;;19.03;;
6997;SDS011;3539;47.982;12.238;2023-03-01T06:58:25;24.60;;;16.77;;
6997;SDS011;3539;47.982;12.238;2023-03-01T07:00:52;22.60;;;17.20;;
6997;SDS011;3539;47.982;12.238;2023-03-01T07:03:20;24.00;;;18.33;;
6997;SDS011;3539;47.982;12.238;2023-03-01T07:05:48;25.37;;;18.50;;
6997;SDS011;3539;47.982;12.238;2023-03-01T07:08:16;24.53;;;17.77;;
6997;SDS011;3539;47.982;12.238;2023-03-01T07:10:43;21.88;;;16.65;;
6997;SDS011;3539;47.982;12.238;2023-03-01T07:13:10;21.97;;;15.70;;
6997;SDS011;3539;47.982;12.238;2023-03-01T07:15:36;22.07;;;17.17;;
6997;SDS011;3539;47.982;12.238;2023-03-01T07:18:03;23.20;;;17.00;;
6997;SDS011;3539;47.982;12.238;2023-03-01T07:20:31;24.47;;;17.10;;
6997;SDS011;3539;47.982;12.238;2023-03-01T07:22:58;22.20;;;17.27;;
6997;SDS011;3539;47.982;12.238;2023-03-01T07:25:24;27.10;;;18.93;;
6997;SDS011;3539;47.982;12.238;2023-03-01T07:27:52;26.73;;;18.20;;
6997;SDS011;3539;47.982;12.238;2023-03-01T07:30:19;28.10;;;20.27;;
6997;SDS011;3539;47.982;12.238;2023-03-01T07:32:46;23.20;;;18.07;;
6997;SDS011;3539;47.982;12.238;2023-03-01T07:35:13;28.57;;;18.50;;
6997;SDS011;3539;47.982;12.238;2023-03-01T07:37:42;25.73;;;17.90;;
6997;SDS011;3539;47.982;12.238;2023-03-01T07:40:09;25.30;;;18.07;;
6997;SDS011;3539;47.982;12.238;2023-03-01T07:42:37;28.00;;;19.63;;
6997;SDS011;3539;47.982;12.238;2023-03-01T07:45:04;24.90;;;18.93;;
6997;SDS011;3539;47.982;12.238;2023-03-01T07:47:32;25.70;;;19.30;;
6997;SDS011;3539;47.982;12.238;2023-03-01T07:49:59;27.57;;;19.57;;
6997;SDS011;3539;47.982;12.238;2023-03-01T07:52:26;28.10;;;19.87;;
6997;SDS011;3539;47.982;12.238;2023-03-01T07:54:54;28.97;;;20.30;;
6997;SDS011;3539;47.982;12.238;2023-03-01T07:57:21;24.50;;;18.70;;
6997;SDS011;3539;47.982;12.238;2023-03-01T07:59:47;26.67;;;19.70;;
6997;SDS011;3539;47.982;12.238;2023-03-01T08:02:14;24.40;;;19.20;;
6997;SDS011;3539;47.982;12.238;2023-03-01T08:04:41;26.20;;;19.10;;
6997;SDS011;3539;47.982;12.238;2023-03-01T08:07:07;25.53;;;20.17;;
6997;SDS011;3539;47.982;12.238;2023-03-01T08:09:34;27.97;;;21.07;;
6997;SDS011;3539;47.982;12.238;2023-03-01T08:12:03;25.57;;;19.00;;
6997;SDS011;3539;47.982;12.238;2023-03-01T08:14:30;26.27;;;19.43;;
6997;SDS011;3539;47.982;12.238;2023-03-01T08:16:57;26.93;;;21.27;;
6997;SDS011;3539;47.982;12.238;2023-03-01T08:19:24;26.57;;;19.53;;
6997;SDS011;3539;47.982;12.238;2023-03-01T08:21:53;28.07;;;20.50;;
6997;SDS011;3539;47.982;12.238;2023-03-01T08:24:19;29.73;;;21.37;;
6997;SDS011;3539;47.982;12.238;2023-03-01T08:26:46;32.70;;;21.73;;
6997;SDS011;3539;47.982;12.238;2023-03-01T08:29:14;27.57;;;19.53;;
6997;SDS011;3539;47.982;12.238;2023-03-01T08:31:41;25.93;;;20.50;;
6997;SDS011;3539;47.982;12.238;2023-03-01T08:34:08;37.87;;;25.60;;
6997;SDS011;3539;47.982;12.238;2023-03-01T08:36:38;31.80;;;21.63;;
6997;SDS011;3539;47.982;12.238;2023-03-01T08:39:06;26.60;;;20.30;;
6997;SDS011;3539;47.982;12.238;2023-03-01T08:41:34;28.90;;;21.57;;
6997;SDS011;3539;47.982;12.238;2023-03-01T08:44:00;27.47;;;21.73;;
6997;SDS011;3539;47.982;12.238;2023-03-01T08:46:29;31.47;;;22.23;;
6997;SDS011;3539;47.982;12.238;2023-03-01T08:48:57;28.23;;;21.30;;
6997;SDS011;3539;47.982;12.238;2023-03-01T08:51:24;29.10;;;20.67;;
6997;SDS011;3539;47.982;12.238;2023-03-01T08:53:52;28.23;;;21.40;;
6997;SDS011;3539;47.982;12.238;2023-03-01T08:56:18;28.40;;;21.07;;
6997;SDS011;3539;47.982;12.238;2023-03-01T08:58:45;37.80;;;27.53;;
6997;SDS011;3539;47.982;12.238;2023-03-01T09:01:14;90.97;;;52.17;;
6997;SDS011;3539;47.982;12.238;2023-03-01T09:03:43;30.47;;;22.87;;
6997;SDS011;3539;47.982;12.238;2023-03-01T09:06:10;30.43;;;19.70;;
6997;SDS011;3539;47.982;12.238;2023-03-01T09:08:38;28.27;;;21.40;;
6997;SDS011;3539;47.982;12.238;2023-03-01T09:11:06;27.87;;;20.97;;
6997;SDS011;3539;47.982;12.238;2023-03-01T09:13:35;29.70;;;22.87;;
6997;SDS011;3539;47.982;12.238;2023-03-01T09:16:02;29.83;;;24.10;;
6997;SDS011;3539;47.982;12.238;2023-03-01T09:18:31;27.87;;;20.83;;
6997;SDS011;3539;47.982;12.238;2023-03-01T09:21:02;30.07;;;21.77;;
6997;SDS011;3539;47.982;12.238;2023-03-01T09:23:32;28.50;;;20.80;;
6997;SDS011;3539;47.982;12.238;2023-03-01T09:25:59;27.97;;;21.63;;
6997;SDS011;3539;47.982;12.238;2023-03-01T09:28:26;29.53;;;21.90;;
6997;SDS011;3539;47.982;12.238;2023-03-01T09:30:52;28.07;;;21.43;;
6997;SDS011;3539;47.982;12.238;2023-03-01T09:33:19;30.73;;;22.67;;
6997;SDS011;3539;47.982;12.238;2023-03-01T09:35:46;28.27;;;20.77;;
6997;SDS011;3539;47.982;12.238;2023-03-01T09:38:14;27.67;;;20.33;;
6997;SDS011;3539;47.982;12.238;2023-03-01T09:40:44;25.93;;;19.30;;
6997;SDS011;3539;47.982;12.238;2023-03-01T09:43:15;28.00;;;20.37;;
6997;SDS011;3539;47.982;12.238;2023-03-01T09:45:45;27.97;;;19.97;;
6997;SDS011;3539;47.982;12.238;2023-03-01T09:48:15;26.17;;;19.30;;
6997;SDS011;3539;47.982;12.238;2023-03-01T09:50:43;27.80;;;21.20;;
6997;SDS011;3539;47.982;12.238;2023-03-01T09:53:15;26.90;;;19.80;;
6997;SDS011;3539;47.982;12.238;2023-03-01T09:55:44;27.33;;;19.47;;
6997;SDS011;3539;47.982;12.238;2023-03-01T10:01:10;24.90;;;18.73;;
6997;SDS011;3539;47.982;12.238;2023-03-01T10:03:49;24.53;;;18.67;;
6997;SDS011;3539;47.982;12.238;2023-03-01T10:06:25;23.60;;;18.37;;
6997;SDS011;3539;47.982;12.238;2023-03-01T10:08:53;26.50;;;18.63;;
6997;SDS011;3539;47.982;12.238;2023-03-01T10:11:23;23.10;;;18.83;;
6997;SDS011;3539;47.982;12.238;2023-03-01T10:13:54;25.00;;;18.70;;
6997;SDS011;3539;47.982;12.238;2023-03-01T10:16:26;26.60;;;19.43;;
6997;SDS011;3539;47.982;12.238;2023-03-01T10:18:56;22.27;;;17.83;;
6997;SDS011;3539;47.982;12.238;2023-03-01T10:21:26;24.87;;;18.83;;
6997;SDS011;3539;47.982;12.238;2023-03-01T10:23:55;23.83;;;18.40;;
6997;SDS011;3539;47.982;12.238;2023-03-01T10:26:32;25.57;;;19.50;;
6997;SDS011;3539;47.982;12.238;2023-03-01T10:29:10;28.13;;;19.57;;
6997;SDS011;3539;47.982;12.238;2023-03-01T10:31:41;24.00;;;17.57;;
6997;SDS011;3539;47.982;12.238;2023-03-01T10:34:13;23.20;;;18.37;;
6997;SDS011;3539;47.982;12.238;2023-03-01T10:36:42;25.00;;;18.30;;
6997;SDS011;3539;47.982;12.238;2023-03-01T10:39:13;22.67;;;16.90;;
6997;SDS011;3539;47.982;12.238;2023-03-01T10:41:51;24.87;;;17.43;;
6997;SDS011;3539;47.982;12.238;2023-03-01T10:47:12;25.10;;;18.63;;
6997;SDS011;3539;47.982;12.238;2023-03-01T10:49:47;25.07;;;17.37;;
6997;SDS011;3539;47.982;12.238;2023-03-01T10:52:19;22.80;;;17.53;;
6997;SDS011;3539;47.982;12.238;2023-03-01T10:54:52;19.03;;;16.07;;
6997;SDS011;3539;47.982;12.238;2023-03-01T10:57:28;17.43;;;13.63;;
6997;SDS011;3539;47.982;12.238;2023-03-01T11:00:14;18.30;;;14.00;;
6997;SDS011;3539;47.982;12.238;2023-03-01T11:02:50;18.90;;;14.93;;
6997;SDS011;3539;47.982;12.238;2023-03-01T11:05:29;18.03;;;14.27;;
6997;SDS011;3539;47.982;12.238;2023-03-01T11:07:59;23.10;;;16.90;;
6997;SDS011;3539;47.982;12.238;2023-03-01T11:10:30;24.40;;;16.70;;
6997;SDS011;3539;47.982;12.238;2023-03-01T11:13:08;22.97;;;16.73;;
6997;SDS011;3539;47.982;12.238;2023-03-01T11:15:39;21.70;;;16.57;;
6997;SDS011;3539;47.982;12.238;2023-03-01T11:18:15;19.60;;;16.47;;
6997;SDS011;3539;47.982;12.238;2023-03-01T11:20:45;22.93;;;17.67;;
6997;SDS011;3539;47.982;12.238;2023-03-01T11:23:12;23.87;;;18.20;;
6997;SDS011;3539;47.982;12.238;2023-03-01T11:25:43;19.43;;;16.43;;
6997;SDS011;3539;47.982;12.238;2023-03-01T11:28:14;19.93;;;16.70;;
6997;SDS011;3539;47.982;12.238;2023-03-01T11:30:45;19.97;;;16.80;;
6997;SDS011;3539;47.982;12.238;2023-03-01T11:33:17;21.70;;;17.17;;
6997;SDS011;3539;47.982;12.238;2023-03-01T11:35:47;21.73;;;16.53;;
6997;SDS011;3539;47.982;12.238;2023-03-01T11:38:19;21.27;;;16.93;;
6997;SDS011;3539;47.982;12.238;2023-03-01T11:40:49;20.77;;;16.93;;
6997;SDS011;3539;47.982;12.238;2023-03-01T11:43:20;25.30;;;16.50;;
6997;SDS011;3539;47.982;12.238;2023-03-01T11:45:57;20.67;;;16.87;;
6997;SDS011;3539;47.982;12.238;2023-03-01T11:48:37;23.00;;;17.13;;
6997;SDS011;3539;47.982;12.238;2023-03-01T11:51:13;22.37;;;17.43;;
6997;SDS011;3539;47.982;12.238;2023-03-01T11:53:50;21.07;;;17.00;;
6997;SDS011;3539;47.982;12.238;2023-03-01T11:56:31;19.13;;;15.70;;
6997;SDS011;3539;47.982;12.238;2023-03-01T11:59:05;20.13;;;16.87;;
6997;SDS011;3539;47.982;12.238;2023-03-01T12:01:56;21.93;;;16.93;;
6997;SDS011;3539;47.982;12.238;2023-03-01T12:04:52;20.50;;;17.33;;
6997;SDS011;3539;47.982;12.238;2023-03-01T12:07:26;21.70;;;17.43;;
6997;SDS011;3539;47.982;12.238;2023-03-01T12:10:09;22.70;;;17.33;;
6997;SDS011;3539;47.982;12.238;2023-03-01T12:12:51;18.83;;;15.90;;
6997;SDS011;3539;47.982;12.238;2023-03-01T12:15:42;20.43;;;16.43;;
6997;SDS011;3539;47.982;12.238;2023-03-01T12:18:38;21.67;;;15.80;;
6997;SDS011;3539;47.982;12.238;2023-03-01T12:21:14;22.40;;;18.08;;
6997;SDS011;3539;47.982;12.238;2023-03-01T12:23:48;22.27;;;17.23;;
6997;SDS011;3539;47.982;12.238;2023-03-01T12:26:56;28.67;;;18.77;;
6997;SDS011;3539;47.982;12.238;2023-03-01T12:29:34;24.33;;;18.37;;
6997;SDS011;3539;47.982;12.238;2023-03-01T12:32:15;20.40;;;16.40;;
6997;SDS011;3539;47.982;12.238;2023-03-01T12:35:04;20.87;;;17.03;;
6997;SDS011;3539;47.982;12.238;2023-03-01T12:37:36;21.77;;;17.90;;
6997;SDS011;3539;47.982;12.238;2023-03-01T12:40:15;24.27;;;17.60;;
6997;SDS011;3539;47.982;12.238;2023-03-01T12:42:52;24.87;;;17.90;;
6997;SDS011;3539;47.982;12.238;2023-03-01T12:45:30;23.40;;;17.30;;
6997;SDS011;3539;47.982;12.238;2023-03-01T12:50:56;25.77;;;18.23;;
6997;SDS011;3539;47.982;12.238;2023-03-01T12:53:25;19.77;;;16.07;;
6997;SDS011;3539;47.982;12.238;2023-03-01T12:55:54;22.00;;;17.23;;
6997;SDS011;3539;47.982;12.238;2023-03-01T12:58:26;25.27;;;18.07;;
6997;SDS011;3539;47.982;12.238;2023-03-01T13:01:02;20.97;;;16.37;;
6997;SDS011;3539;47.982;12.238;2023-03-01T13:03:42;20.07;;;16.20;;
6997;SDS011;3539;47.982;12.238;2023-03-01T13:06:29;21.20;;;15.53;;
6997;SDS011;3539;47.982;12.238;2023-03-01T13:09:03;23.07;;;16.50;;
6997;SDS011;3539;47.982;12.238;2023-03-01T13:11:34;22.00;;;16.00;;
6997;SDS011;3539;47.982;12.238;2023-03-01T13:17:31;21.33;;;16.43;;
6997;SDS011;3539;47.982;12.238;2023-03-01T13:19:59;20.93;;;16.03;;
6997;SDS011;3539;47.982;12.238;2023-03-01T13:22:28;19.37;;;15.70;;
6997;SDS011;3539;47.982;12.238;2023-03-01T13:25:11;20.60;;;16.57;;
6997;SDS011;3539;47.982;12.238;2023-03-01T13:27:40;20.80;;;16.07;;
6997;SDS011;3539;47.982;12.238;2023-03-01T13:30:37;22.33;;;17.87;;
6997;SDS011;3539;47.982;12.238;2023-03-01T13:39:29;20.37;;;17.37;;
6997;SDS011;3539;47.982;12.238;2023-03-01T13:41:58;23.00;;;16.60;;
6997;SDS011;3539;47.982;12.238;2023-03-01T13:44:32;20.90;;;17.43;;
6997;SDS011;3539;47.982;12.238;2023-03-01T13:47:03;23.67;;;17.20;;
6997;SDS011;3539;47.982;12.238;2023-03-01T13:49:43;24.43;;;18.70;;
6997;SDS011;3539;47.982;12.238;2023-03-01T13:52:21;22.10;;;17.03;;
6997;SDS011;3539;47.982;12.238;2023-03-01T13:54:58;21.20;;;16.87;;
6997;SDS011;3539;47.982;12.238;2023-03-01T13:57:33;24.20;;;17.80;;
6997;SDS011;3539;47.982;12.238;2023-03-01T14:00:00;23.03;;;18.10;;
6997;SDS011;3539;47.982;12.238;2023-03-01T14:02:29;25.33;;;17.83;;
6997;SDS011;3539;47.982;12.238;2023-03-01T14:04:56;22.60;;;18.17;;
6997;SDS011;3539;47.982;12.238;2023-03-01T14:07:24;23.27;;;18.60;;
6997;SDS011;3539;47.982;12.238;2023-03-01T14:09:54;25.03;;;18.20;;
6997;SDS011;3539;47.982;12.238;2023-03-01T14:12:26;26.07;;;19.30;;
6997;SDS011;3539;47.982;12.238;2023-03-01T14:15:04;22.67;;;17.83;;
6997;SDS011;3539;47.982;12.238;2023-03-01T14:20:19;23.80;;;18.30;;
6997;SDS011;3539;47.982;12.238;2023-03-01T14:22:48;22.97;;;18.23;;
6997;SDS011;3539;47.982;12.238;2023-03-01T14:25:19;23.13;;;16.97;;
6997;SDS011;3539;47.982;12.238;2023-03-01T14:27:54;25.57;;;18.73;;
6997;SDS011;3539;47.982;12.238;2023-03-01T14:30:23;26.20;;;18.67;;
6997;SDS011;3539;47.982;12.238;2023-03-01T14:32:54;23.83;;;18.87;;
6997;SDS011;3539;47.982;12.238;2023-03-01T14:35:23;24.80;;;18.97;;
6997;SDS011;3539;47.982;12.238;2023-03-01T14:37:50;23.83;;;18.80;;
6997;SDS011;3539;47.982;12.238;2023-03-01T14:40:24;24.07;;;18.80;;
6997;SDS011;3539;47.982;12.238;2023-03-01T14:42:54;25.27;;;19.90;;
6997;SDS011;3539;47.982;12.238;2023-03-01T14:45:23;22.67;;;18.30;;
6997;SDS011;3539;47.982;12.238;2023-03-01T14:47:51;21.87;;;17.43;;
6997;SDS011;3539;47.982;12.238;2023-03-01T14:50:20;25.70;;;20.13;;
6997;SDS011;3539;47.982;12.238;2023-03-01T14:52:49;23.80;;;18.53;;
6997;SDS011;3539;47.982;12.238;2023-03-01T14:55:18;23.07;;;17.67;;
6997;SDS011;3539;47.982;12.238;2023-03-01T14:57:47;24.03;;;18.03;;
6997;SDS011;3539;47.982;12.238;2023-03-01T15:00:17;24.13;;;18.20;;
6997;SDS011;3539;47.982;12.238;2023-03-01T15:02:46;25.87;;;18.17;;
6997;SDS011;3539;47.982;12.238;2023-03-01T15:05:14;25.17;;;19.83;;
6997;SDS011;3539;47.982;12.238;2023-03-01T15:07:42;27.87;;;19.17;;
6997;SDS011;3539;47.982;12.238;2023-03-01T15:10:14;27.50;;;20.33;;